Time;durP1;ratioP1;P1;durP2;ratioP2;P2;SDS_P1;SDS_P2;PMS_P1;PMS_P2;Temp;Humidity;BMP_temperature;BMP_pressure;BME280_temperature;BME280_humidity;BME280_pressure;Samples;Min_cycle;Max_cycle;Signal;HPM_P1;HPM_P2
2022/12/15 00:38:44;;;;;;;12.70;6.15;;;-4.80;99.90;;;;;;5021573;28;20053;-36
2022/12/15 00:41:15;;;;;;;12.50;6.22;;;-4.80;99.90;;;;;;5026350;28;20033;-36
2022/12/15 00:43:41;;;;;;;14.45;6.47;;;-4.80;99.90;;;;;;5025579;28;20099;-36
2022/12/15 00:48:51;;;;;;;18.02;7.35;;;-4.80;99.90;;;;;;5030149;28;20078;-36
2022/12/15 00:51:17;;;;;;;17.48;7.32;;;-4.80;99.90;;;;;;5029088;28;20068;-36
2022/12/15 01:21:10;;;;;;;18.30;6.88;;;-4.90;99.90;;;;;;5026092;28;20100;-36
2022/12/15 01:23:37;;;;;;;15.10;5.70;;;-4.80;99.90;;;;;;5018096;28;20040;-36
2022/12/15 01:26:04;;;;;;;12.27;6.30;;;-4.80;99.90;;;;;;5036206;28;20135;-37
2022/12/15 01:28:30;;;;;;;16.20;7.78;;;-4.80;99.90;;;;;;5042744;28;20040;-37
2022/12/15 01:30:56;;;;;;;17.23;7.43;;;-4.90;99.90;;;;;;5048937;28;20420;-36
2022/12/15 01:33:22;;;;;;;18.23;7.47;;;-4.90;99.90;;;;;;5045087;28;20028;-37
2022/12/15 01:36:03;;;;;;;15.95;7.13;;;-4.90;99.90;;;;;;5039044;28;20045;-35
2022/12/15 01:38:29;;;;;;;11.90;6.25;;;-4.90;99.90;;;;;;5047839;28;20089;-36
2022/12/15 01:41:06;;;;;;;17.63;7.45;;;-4.90;99.90;;;;;;5041078;28;20033;-35
2022/12/15 01:43:35;;;;;;;16.40;6.80;;;-4.90;99.90;;;;;;5044658;28;20090;-36
2022/12/15 01:46:04;;;;;;;16.10;7.07;;;-4.90;99.90;;;;;;5044567;28;20047;-36
2022/12/15 01:48:41;;;;;;;13.73;5.95;;;-4.90;99.90;;;;;;5051666;28;20502;-36
2022/12/15 01:51:15;;;;;;;14.82;7.43;;;-4.90;99.90;;;;;;5043443;28;20044;-36
2022/12/15 01:53:59;;;;;;;16.95;7.05;;;-4.90;99.90;;;;;;5038820;28;20072;-38
2022/12/15 01:56:26;;;;;;;15.82;7.25;;;-4.90;99.90;;;;;;5042822;28;20064;-35
2022/12/15 01:58:55;;;;;;;15.80;7.07;;;-4.90;99.90;;;;;;5041914;28;20037;-36
2022/12/15 02:01:21;;;;;;;16.58;8.00;;;-5.00;99.90;;;;;;5045681;28;20071;-37
2022/12/15 02:03:48;;;;;;;17.30;7.35;;;-5.00;99.90;;;;;;5044036;28;20119;-35
2022/12/15 02:06:15;;;;;;;13.00;7.15;;;-5.00;99.90;;;;;;5045421;28;20075;-40
2022/12/15 02:08:44;;;;;;;15.02;6.82;;;-5.00;99.90;;;;;;5044306;28;20056;-37
2022/12/15 02:11:35;;;;;;;15.38;6.63;;;-5.00;99.90;;;;;;5040859;28;20044;-35
2022/12/15 02:14:08;;;;;;;17.63;7.50;;;-5.00;99.90;;;;;;5041913;28;20103;-36
2022/12/15 02:16:49;;;;;;;14.73;6.93;;;-5.00;99.90;;;;;;5042151;28;20041;-51
2022/12/15 02:19:39;;;;;;;14.85;7.13;;;-5.00;99.90;;;;;;5043285;28;20037;-36
2022/12/15 02:22:23;;;;;;;14.23;7.15;;;-5.00;99.90;;;;;;5043245;28;20048;-35
2022/12/15 02:25:44;;;;;;;13.75;6.45;;;-5.00;99.90;;;;;;5040527;28;20073;-35
2022/12/15 02:28:15;;;;;;;17.98;7.35;;;-5.00;99.90;;;;;;4994273;28;20679;-37
2022/12/15 02:31:48;;;;;;;12.90;6.10;;;-5.00;99.90;;;;;;5018143;28;20052;-36
2022/12/15 02:33:45;;;;;;;19.80;8.05;;;-5.00;99.90;;;;;;5021119;28;20045;-36
2022/12/15 02:36:25;;;;;;;17.40;7.18;;;-5.00;99.90;;;;;;5017835;28;20050;-36
2022/12/15 02:38:50;;;;;;;15.68;7.03;;;-5.00;99.90;;;;;;5023186;28;20033;-36
2022/12/15 02:41:36;;;;;;;15.15;7.28;;;-4.90;99.90;;;;;;5022156;28;20510;-36
2022/12/15 02:44:09;;;;;;;17.83;7.57;;;-4.90;99.90;;;;;;5018020;28;20030;-35
2022/12/15 02:47:13;;;;;;;14.88;6.80;;;-4.90;99.90;;;;;;5022947;28;20387;-36
2022/12/15 02:49:46;;;;;;;;;;;-4.90;99.90;;;;;;5020873;28;20038;-39
2022/12/15 02:52:35;;;;;;;14.20;6.65;;;-4.90;99.90;;;;;;5024357;28;20003;-38
2022/12/15 02:55:36;;;;;;;18.20;6.65;;;-4.90;99.90;;;;;;5025082;28;21045;-39
2022/12/15 02:58:18;;;;;;;9.52;4.93;;;-4.90;99.90;;;;;;5021615;28;20636;-43
2022/12/15 03:00:54;;;;;;;13.90;6.55;;;-5.00;99.90;;;;;;5020401;28;20510;-41
2022/12/15 03:03:21;;;;;;;12.23;5.63;;;-5.00;99.90;;;;;;5024684;28;20490;-37
2022/12/15 03:05:53;;;;;;;15.30;7.60;;;-5.00;99.90;;;;;;5018144;28;20046;-39
2022/12/15 03:08:20;;;;;;;16.80;6.65;;;-5.00;99.90;;;;;;5025322;28;20048;-39
2022/12/15 03:10:48;;;;;;;15.30;6.60;;;-5.00;99.90;;;;;;5027361;28;20050;-41
2022/12/15 03:13:14;;;;;;;16.35;6.40;;;-5.00;99.90;;;;;;5022246;28;20037;-39
2022/12/15 03:15:40;;;;;;;16.33;6.03;;;-5.00;99.90;;;;;;5005363;28;20116;-40
2022/12/15 03:18:05;;;;;;;18.15;6.00;;;-5.00;99.90;;;;;;5018171;28;20068;-40
2022/12/15 03:20:31;;;;;;;15.60;6.07;;;-5.00;99.90;;;;;;5027959;28;20393;-38
2022/12/15 03:22:57;;;;;;;13.63;6.70;;;-5.00;99.90;;;;;;5022417;28;20087;-39
2022/12/15 03:25:23;;;;;;;13.80;5.93;;;-5.00;99.90;;;;;;5024177;28;20393;-40
2022/12/15 03:27:48;;;;;;;14.95;6.00;;;-5.00;99.90;;;;;;5025090;28;20095;-38
2022/12/15 03:30:14;;;;;;;19.73;7.05;;;-5.00;99.90;;;;;;5033350;28;20042;-39
2022/12/15 03:32:40;;;;;;;13.80;6.45;;;-5.00;99.90;;;;;;5024468;28;20045;-39
2022/12/15 03:35:06;;;;;;;12.20;6.57;;;-5.00;99.90;;;;;;5017402;28;20107;-39
2022/12/15 03:37:32;;;;;;;15.93;6.65;;;-5.00;99.90;;;;;;5023020;28;20036;-39
2022/12/15 03:39:58;;;;;;;14.25;5.57;;;-5.10;99.90;;;;;;5026641;28;20033;-39
2022/12/15 03:45:26;;;;;;;12.77;5.72;;;-5.10;99.90;;;;;;4983591;28;20454;-39
2022/12/15 03:47:53;;;;;;;16.95;7.13;;;-5.10;99.90;;;;;;5014545;28;20442;-38
2022/12/15 03:50:24;;;;;;;14.13;6.15;;;-5.10;99.90;;;;;;5026999;28;20045;-41
2022/12/15 03:52:57;;;;;;;14.70;5.45;;;-5.10;99.90;;;;;;5019171;28;20503;-42
2022/12/15 03:55:23;;;;;;;15.38;7.00;;;-5.00;99.90;;;;;;5024050;28;20394;-39
2022/12/15 03:57:50;;;;;;;14.48;7.00;;;-5.10;99.90;;;;;;5020951;28;20091;-40
2022/12/15 04:00:17;;;;;;;14.40;6.15;;;-5.10;99.90;;;;;;5024251;28;20494;-40
2022/12/15 04:02:43;;;;;;;17.63;7.88;;;-5.10;99.90;;;;;;5022221;28;20072;-38
2022/12/15 04:05:19;;;;;;;15.18;6.53;;;-5.10;99.90;;;;;;5025037;28;20137;-39
2022/12/15 04:07:44;;;;;;;18.10;5.97;;;-5.10;99.90;;;;;;5025035;28;20042;-39
2022/12/15 04:10:11;;;;;;;15.77;6.55;;;-5.10;99.90;;;;;;5025409;28;20051;-39
2022/12/15 04:12:38;;;;;;;14.48;6.15;;;-5.10;99.90;;;;;;5024434;28;20110;-39
2022/12/15 04:15:06;;;;;;;15.40;6.82;;;-5.10;99.90;;;;;;5024897;28;20120;-40
2022/12/15 04:17:31;;;;;;;17.30;6.80;;;-5.10;99.90;;;;;;5021115;28;20050;-40
2022/12/15 04:20:09;;;;;;;15.13;6.45;;;-5.10;99.90;;;;;;5020825;28;20045;-39
2022/12/15 04:22:45;;;;;;;12.13;5.90;;;-5.10;99.90;;;;;;5021908;28;20033;-39
2022/12/15 05:31:53;;;;;;;12.20;5.75;;;-5.10;99.90;;;;;;5029637;28;20092;-39
2022/12/15 05:34:23;;;;;;;13.65;5.82;;;-5.00;99.90;;;;;;5029298;28;20498;-39
2022/12/15 05:36:49;;;;;;;15.23;6.03;;;-5.00;99.90;;;;;;5024938;28;20502;-41
2022/12/15 05:39:15;;;;;;;16.27;7.50;;;-5.00;99.90;;;;;;5028321;28;20136;-40
2022/12/15 05:41:41;;;;;;;16.00;6.70;;;-5.00;99.90;;;;;;5024976;28;20128;-39
2022/12/15 05:44:07;;;;;;;10.73;4.75;;;-5.10;99.90;;;;;;5026545;28;20075;-39
2022/12/15 05:46:32;;;;;;;14.75;6.68;;;-5.10;99.90;;;;;;5026022;28;20041;-38
2022/12/15 05:48:58;;;;;;;12.88;5.93;;;-5.10;99.90;;;;;;5026877;28;20505;-37
2022/12/15 05:51:24;;;;;;;13.85;5.75;;;-5.10;99.90;;;;;;5027083;28;20033;-38
2022/12/15 05:53:49;;;;;;;17.02;6.47;;;-5.10;99.90;;;;;;5028361;28;20048;-39
2022/12/15 05:56:15;;;;;;;14.95;6.35;;;-5.10;99.90;;;;;;5034769;28;20505;-44
2022/12/15 05:58:41;;;;;;;17.20;6.57;;;-5.10;99.90;;;;;;5027118;28;20121;-39
2022/12/15 06:01:25;;;;;;;12.77;6.13;;;-5.10;99.90;;;;;;5025769;28;20025;-39
2022/12/15 06:03:51;;;;;;;12.82;5.80;;;-5.10;99.90;;;;;;5026101;28;20568;-39
2022/12/15 06:06:18;;;;;;;13.27;6.25;;;-5.10;99.90;;;;;;5025626;28;20045;-40
2022/12/15 06:08:43;;;;;;;14.88;6.32;;;-5.20;99.90;;;;;;5025171;28;20037;-39
2022/12/15 06:11:12;;;;;;;15.70;6.85;;;-5.10;99.90;;;;;;5019583;28;20037;-39
2022/12/15 06:13:37;;;;;;;12.25;5.85;;;-5.10;99.90;;;;;;5018785;28;20045;-39
2022/12/15 06:16:06;;;;;;;14.43;5.65;;;-5.10;99.90;;;;;;5025933;28;20475;-39
2022/12/15 06:18:34;;;;;;;15.10;6.72;;;-5.10;99.90;;;;;;5026367;28;20495;-39
2022/12/15 06:21:06;;;;;;;13.57;6.60;;;-5.10;99.90;;;;;;5021898;28;20236;-37
2022/12/15 06:23:32;;;;;;;18.98;6.85;;;-5.10;99.90;;;;;;5028747;28;20108;-39
2022/12/15 06:25:58;;;;;;;13.10;6.10;;;-5.10;99.90;;;;;;5032688;28;20057;-40
2022/12/15 06:28:24;;;;;;;12.55;6.05;;;-5.00;99.90;;;;;;5026876;28;20041;-39
2022/12/15 06:30:54;;;;;;;13.02;5.80;;;-5.00;99.90;;;;;;5016646;28;20506;-39
2022/12/15 06:33:21;;;;;;;16.95;5.85;;;-5.00;99.90;;;;;;5021878;28;20174;-39
2022/12/15 06:35:48;;;;;;;12.55;5.85;;;-5.00;99.90;;;;;;5026392;28;20071;-39
2022/12/15 06:38:14;;;;;;;14.15;6.03;;;-5.00;99.90;;;;;;5021824;28;21713;-44
2022/12/15 06:40:40;;;;;;;22.90;7.00;;;-5.00;99.90;;;;;;5009083;28;20049;-39
2022/12/15 06:43:06;;;;;;;13.60;6.15;;;-5.00;99.90;;;;;;5007922;28;20046;-39
2022/12/15 06:45:33;;;;;;;12.10;6.05;;;-5.00;99.90;;;;;;5015335;28;20033;-39
2022/12/15 06:47:59;;;;;;;15.27;6.80;;;-5.00;99.90;;;;;;4999748;28;20096;-43
2022/12/15 06:50:24;;;;;;;15.48;6.43;;;-5.00;99.90;;;;;;4996506;28;20042;-39
2022/12/15 06:52:50;;;;;;;15.45;6.20;;;-5.00;99.90;;;;;;5006763;28;20368;-39
2022/12/15 06:55:16;;;;;;;12.02;5.60;;;-5.00;99.90;;;;;;5005060;28;20037;-43
2022/12/15 06:57:42;;;;;;;12.68;5.80;;;-4.90;99.90;;;;;;5007226;28;20494;-39
2022/12/15 07:00:09;;;;;;;14.18;6.15;;;-4.90;99.90;;;;;;5013439;28;20048;-39
2022/12/15 07:02:35;;;;;;;13.48;5.88;;;-4.90;99.90;;;;;;5012008;28;20052;-37
2022/12/15 07:05:01;;;;;;;16.00;5.97;;;-4.90;99.90;;;;;;5013369;28;20034;-38
2022/12/15 07:07:27;;;;;;;12.07;5.82;;;-4.90;99.90;;;;;;5009084;28;20430;-39
2022/12/15 07:09:53;;;;;;;13.02;6.15;;;-4.80;99.90;;;;;;5009255;28;20458;-37
2022/12/15 07:12:18;;;;;;;13.45;6.07;;;-4.80;99.90;;;;;;5012637;28;20041;-45
2022/12/15 07:14:44;;;;;;;11.93;5.88;;;-4.80;99.90;;;;;;5009956;28;20034;-39
2022/12/15 07:17:10;;;;;;;13.60;6.22;;;-4.70;99.90;;;;;;5008463;28;20076;-41
2022/12/15 07:19:36;;;;;;;14.32;5.80;;;-4.70;99.90;;;;;;5005050;28;20096;-37
2022/12/15 07:22:01;;;;;;;13.70;5.85;;;-4.70;99.90;;;;;;5004217;28;20034;-38
2022/12/15 07:24:27;;;;;;;12.40;5.40;;;-4.60;99.90;;;;;;5012223;28;20030;-39
2022/12/15 07:26:53;;;;;;;13.02;5.40;;;-4.60;99.90;;;;;;5019474;28;20057;-38
2022/12/15 07:29:19;;;;;;;12.30;5.57;;;-4.60;99.90;;;;;;5025629;28;20045;-39
2022/12/15 07:31:45;;;;;;;13.13;5.85;;;-4.60;99.90;;;;;;5026565;28;20046;-44
2022/12/15 07:34:11;;;;;;;16.52;5.95;;;-4.50;99.90;;;;;;5026401;28;20049;-38
2022/12/15 07:36:36;;;;;;;16.80;5.47;;;-4.50;99.90;;;;;;5032932;28;20033;-39
2022/12/15 07:39:03;;;;;;;11.85;4.53;;;-4.50;99.90;;;;;;5029347;28;20042;-39
2022/12/15 07:41:29;;;;;;;14.40;6.00;;;-4.40;99.90;;;;;;5022616;28;20402;-40
2022/12/15 07:43:55;;;;;;;17.13;6.05;;;-4.40;99.90;;;;;;5027243;28;20044;-41
2022/12/15 07:46:21;;;;;;;12.40;5.43;;;-4.40;99.90;;;;;;5025516;28;20436;-38
2022/12/15 07:48:46;;;;;;;14.80;6.00;;;-4.40;99.90;;;;;;5007099;28;20120;-39
2022/12/15 07:51:12;;;;;;;14.20;5.95;;;-4.50;99.90;;;;;;5023749;28;20056;-39
2022/12/15 07:53:38;;;;;;;12.23;5.20;;;-4.40;99.90;;;;;;5022310;28;20059;-39
2022/12/15 07:56:05;;;;;;;13.27;5.28;;;-4.40;99.90;;;;;;5023526;28;20418;-38
2022/12/15 07:58:31;;;;;;;15.02;6.40;;;-4.30;99.90;;;;;;5025483;28;20041;-38
2022/12/15 08:01:02;;;;;;;14.07;5.65;;;-4.30;99.90;;;;;;5027197;28;20793;-39
2022/12/15 08:03:28;;;;;;;13.05;5.90;;;-4.30;99.90;;;;;;5018762;28;20053;-39
2022/12/15 08:05:54;;;;;;;14.70;6.28;;;-4.20;99.90;;;;;;5028401;28;20041;-37
2022/12/15 08:08:21;;;;;;;14.50;6.78;;;-4.10;99.90;;;;;;5026364;28;20064;-39
2022/12/15 08:10:47;;;;;;;12.30;5.75;;;-4.10;99.90;;;;;;5024450;28;20038;-44
2022/12/15 08:13:13;;;;;;;12.95;5.43;;;-4.00;99.90;;;;;;5024094;28;20037;-40
2022/12/15 08:15:40;;;;;;;11.73;5.97;;;-4.00;99.90;;;;;;5027223;28;20048;-38
2022/12/15 08:18:07;;;;;;;17.15;6.78;;;-3.90;99.90;;;;;;5026045;28;20094;-39
2022/12/15 08:20:34;;;;;;;12.05;5.85;;;-3.80;99.90;;;;;;5022748;28;20533;-41
2022/12/15 08:23:00;;;;;;;10.73;4.72;;;-3.70;99.90;;;;;;5030522;28;20041;-39
2022/12/15 08:25:27;;;;;;;15.23;6.20;;;-3.60;99.90;;;;;;5004548;28;20107;-38
2022/12/15 08:27:53;;;;;;;14.45;6.15;;;-3.50;99.90;;;;;;5006538;28;20042;-39
2022/12/15 08:30:19;;;;;;;16.23;6.30;;;-3.40;99.90;;;;;;5007862;28;20038;-39
2022/12/15 08:32:46;;;;;;;17.58;6.68;;;-3.40;99.90;;;;;;5011782;28;20449;-41
2022/12/15 08:35:12;;;;;;;14.20;6.47;;;-3.30;99.90;;;;;;5004896;28;20107;-39
2022/12/15 08:37:38;;;;;;;15.85;7.15;;;-3.20;99.90;;;;;;5005092;28;20046;-40
2022/12/15 08:40:05;;;;;;;14.25;6.28;;;-3.10;99.90;;;;;;5012237;28;20511;-40
2022/12/15 08:42:35;;;;;;;16.90;6.35;;;-3.00;99.90;;;;;;5007899;28;21669;-41
2022/12/15 08:45:01;;;;;;;19.98;7.05;;;-3.00;99.90;;;;;;4985072;28;20046;-38
2022/12/15 08:47:27;;;;;;;12.93;6.70;;;-3.00;99.90;;;;;;5010053;28;20386;-39
2022/12/15 08:49:54;;;;;;;21.40;6.72;;;-2.90;99.90;;;;;;5013544;28;20037;-41
2022/12/15 08:52:21;;;;;;;12.95;5.75;;;-2.90;99.90;;;;;;5005783;28;20053;-39
2022/12/15 08:54:47;;;;;;;14.10;6.38;;;-2.90;99.90;;;;;;5006704;28;20107;-41
2022/12/15 08:57:12;;;;;;;14.85;6.60;;;-2.90;99.90;;;;;;5010287;28;20494;-40
2022/12/15 08:59:38;;;;;;;12.50;6.53;;;-2.80;99.90;;;;;;5018633;28;20368;-40
2022/12/15 09:02:04;;;;;;;14.65;6.28;;;-2.80;99.90;;;;;;5013844;28;20131;-40
2022/12/15 09:04:29;;;;;;;13.80;5.68;;;-2.80;99.90;;;;;;5008076;28;20038;-39
2022/12/15 09:06:55;;;;;;;11.75;5.57;;;-2.70;99.90;;;;;;5009663;28;20041;-40
2022/12/15 09:09:21;;;;;;;13.30;6.25;;;-2.60;99.90;;;;;;5013166;28;20044;-39
2022/12/15 09:11:47;;;;;;;13.95;6.60;;;-2.40;99.90;;;;;;5008580;28;20455;-41
2022/12/15 09:14:13;;;;;;;17.50;7.00;;;-2.20;99.90;;;;;;5012365;28;20368;-41
2022/12/15 09:16:39;;;;;;;10.95;5.40;;;-2.10;99.90;;;;;;5010665;28;20049;-41
2022/12/15 09:19:06;;;;;;;14.20;6.13;;;-1.90;99.90;;;;;;5014798;28;20056;-39
2022/12/15 09:21:31;;;;;;;13.90;5.82;;;-1.70;99.90;;;;;;5011316;28;20038;-39
2022/12/15 09:24:00;;;;;;;12.32;6.25;;;-1.60;99.90;;;;;;5004076;28;20041;-39
2022/12/15 09:26:31;;;;;;;17.10;6.85;;;-1.60;99.90;;;;;;5021508;28;20053;-39
2022/12/15 09:28:57;;;;;;;14.88;7.07;;;-1.50;99.90;;;;;;5031458;28;20049;-40
2022/12/15 09:31:27;;;;;;;15.82;6.65;;;-1.40;99.90;;;;;;5028144;28;20203;-39
2022/12/15 09:33:54;;;;;;;13.55;6.90;;;-1.40;99.90;;;;;;5025417;28;20045;-39
2022/12/15 09:36:21;;;;;;;11.85;5.95;;;-1.30;99.90;;;;;;5033614;28;20073;-39
2022/12/15 09:38:47;;;;;;;14.38;6.78;;;-1.20;99.90;;;;;;5025775;28;20042;-39
2022/12/15 09:41:12;;;;;;;12.65;6.20;;;-1.20;99.90;;;;;;5026059;28;20044;-41
2022/12/15 09:43:58;;;;;;;13.80;6.55;;;-1.10;99.90;;;;;;5032570;28;20041;-38
2022/12/15 09:46:55;;;;;;;11.07;5.43;;;-1.10;99.90;;;;;;5023222;28;21809;-39
2022/12/15 09:49:46;;;;;;;14.85;6.68;;;-1.00;99.90;;;;;;5025081;28;20053;-39
2022/12/15 09:52:18;;;;;;;11.80;5.60;;;-1.10;99.90;;;;;;5025842;28;20064;-39
2022/12/15 09:54:45;;;;;;;16.55;6.15;;;-1.10;99.90;;;;;;5021581;28;20049;-38
2022/12/15 09:57:19;;;;;;;16.08;6.88;;;-1.10;99.90;;;;;;5029529;28;20458;-38
2022/12/15 10:00:00;;;;;;;12.18;5.90;;;-1.10;99.90;;;;;;5028317;28;20067;-39
2022/12/15 10:03:09;;;;;;;13.60;6.28;;;-1.00;99.90;;;;;;5032880;28;20041;-39
2022/12/15 10:05:54;;;;;;;12.52;6.45;;;-0.90;99.90;;;;;;5024917;28;20541;-38
2022/12/15 10:08:22;;;;;;;15.65;7.13;;;-0.80;99.90;;;;;;5024929;28;20045;-39
2022/12/15 10:11:05;;;;;;;12.00;6.88;;;-0.70;99.90;;;;;;5021148;28;20059;-39
2022/12/15 10:14:13;;;;;;;13.07;6.18;;;-0.50;99.90;;;;;;5023094;28;20053;-39
2022/12/15 10:17:01;;;;;;;13.27;6.25;;;-0.40;99.90;;;;;;4973306;28;20508;-38
2022/12/15 10:19:40;;;;;;;13.73;6.57;;;-0.30;99.90;;;;;;5023790;28;20037;-39
2022/12/15 10:22:15;;;;;;;14.07;6.63;;;-0.30;99.90;;;;;;5028516;28;20470;-39
2022/12/15 10:24:41;;;;;;;12.05;6.75;;;-0.30;99.90;;;;;;5023204;28;20045;-38
2022/12/15 10:27:18;;;;;;;14.02;7.07;;;-0.20;99.90;;;;;;5030573;28;20503;-39
2022/12/15 10:29:44;;;;;;;14.20;7.43;;;0.00;99.90;;;;;;5012277;28;20052;-40
2022/12/15 10:32:41;;;;;;;12.63;6.07;;;0.00;99.90;;;;;;5029390;28;20072;-39
2022/12/15 10:35:20;;;;;;;12.93;6.78;;;0.10;99.90;;;;;;5032252;28;20104;-40
2022/12/15 10:37:46;;;;;;;12.35;6.90;;;0.10;99.90;;;;;;5026139;28;20064;-39
2022/12/15 10:40:18;;;;;;;13.55;6.50;;;0.10;99.90;;;;;;5029831;28;20501;-38
2022/12/15 10:42:49;;;;;;;13.93;6.57;;;0.10;99.90;;;;;;5026070;28;20037;-38
2022/12/15 10:45:36;;;;;;;14.98;7.88;;;0.10;99.90;;;;;;5031768;28;20033;-39
2022/12/15 10:48:05;;;;;;;13.20;6.57;;;0.20;99.90;;;;;;5036147;28;20486;-40
2022/12/15 10:50:32;;;;;;;15.48;7.22;;;0.20;99.90;;;;;;5021251;28;20040;-39
2022/12/15 10:52:58;;;;;;;16.13;7.50;;;0.30;99.90;;;;;;5035486;28;20051;-39
2022/12/15 10:55:40;;;;;;;15.80;7.25;;;0.30;99.90;;;;;;5050585;28;20493;-39
2022/12/15 10:58:20;;;;;;;12.57;6.10;;;0.40;99.90;;;;;;5044761;28;20127;-38
2022/12/15 11:00:47;;;;;;;16.08;7.10;;;0.40;99.90;;;;;;5040114;28;20065;-39
2022/12/15 11:03:25;;;;;;;11.52;6.40;;;0.30;99.90;;;;;;5037555;28;20052;-41
2022/12/15 11:05:55;;;;;;;14.48;7.15;;;0.30;99.90;;;;;;5041285;28;20047;-38
2022/12/15 11:08:23;;;;;;;15.70;7.47;;;0.40;99.90;;;;;;5042096;28;20608;-39
2022/12/15 11:14:02;;;;;;;16.20;6.38;;;;;;;;;;5031123;28;20049;-38
2022/12/15 11:16:30;;;;;;;12.82;6.47;;;2.30;99.90;;;;;;5036190;28;20068;-39
2022/12/15 11:19:09;;;;;;;11.00;5.90;;;2.40;99.90;;;;;;5043496;28;20088;-39
2022/12/15 11:21:40;;;;;;;12.45;6.47;;;2.60;99.90;;;;;;5028243;28;20109;-39
2022/12/15 11:24:14;;;;;;;11.18;5.70;;;3.00;99.90;;;;;;5030461;28;20044;-40
2022/12/15 11:27:04;;;;;;;15.70;6.20;;;3.40;99.90;;;;;;5030628;28;20067;-41
2022/12/15 11:29:55;;;;;;;11.75;5.65;;;3.80;99.90;;;;;;5036969;28;20053;-40
2022/12/15 11:32:25;;;;;;;10.23;5.60;;;4.20;99.90;;;;;;5045937;28;20056;-41
2022/12/15 11:34:51;;;;;;;11.52;5.40;;;4.40;99.90;;;;;;5038802;28;20770;-39
2022/12/15 11:37:46;;;;;;;11.60;5.00;;;4.40;99.90;;;;;;5046525;28;20068;-39
2022/12/15 11:40:34;;;;;;;8.50;4.75;;;4.40;99.90;;;;;;5028084;28;20048;-41
2022/12/15 11:43:37;;;;;;;8.23;4.88;;;4.60;99.90;;;;;;5042139;28;20178;-40
2022/12/15 11:46:25;;;;;;;9.73;5.18;;;5.00;99.90;;;;;;5049315;28;20094;-39
2022/12/15 11:49:13;;;;;;;10.80;5.18;;;5.30;99.90;;;;;;5042579;28;20051;-42
2022/12/15 11:51:54;;;;;;;7.82;4.40;;;5.50;99.90;;;;;;5046797;28;20078;-42
2022/12/15 11:54:45;;;;;;;9.60;4.75;;;5.70;99.90;;;;;;5043629;28;20041;-48
2022/12/15 11:57:40;;;;;;;9.20;4.45;;;5.80;99.90;;;;;;5043544;28;20553;-40
2022/12/15 12:00:20;;;;;;;10.27;4.80;;;5.70;99.90;;;;;;5044426;28;20467;-39
2022/12/15 12:03:11;;;;;;;9.80;4.50;;;5.80;99.90;;;;;;5043352;28;20052;-44
2022/12/15 12:05:59;;;;;;;8.52;4.20;;;6.20;99.90;;;;;;5038320;28;20056;-45
2022/12/15 12:08:45;;;;;;;9.15;4.25;;;6.30;99.90;;;;;;5038865;28;20510;-43
2022/12/15 12:11:25;;;;;;;8.60;4.28;;;6.50;99.90;;;;;;5045217;28;20521;-40
2022/12/15 12:14:05;;;;;;;9.43;4.22;;;6.60;99.90;;;;;;5037803;28;20115;-42
2022/12/15 12:16:50;;;;;;;9.85;4.10;;;6.60;99.90;;;;;;5050198;28;20040;-41
2022/12/15 12:19:22;;;;;;;8.93;4.32;;;6.80;99.70;;;;;;5034015;28;20128;-45
2022/12/15 12:21:50;;;;;;;9.95;3.60;;;7.00;98.50;;;;;;5046347;28;20033;-44
2022/12/15 12:24:29;;;;;;;8.98;3.85;;;6.50;99.30;;;;;;5039846;28;20033;-41
2022/12/15 12:27:02;;;;;;;8.77;4.45;;;5.90;99.60;;;;;;5045954;28;20041;-43
2022/12/15 12:29:50;;;;;;;10.60;4.63;;;5.80;99.50;;;;;;5028325;28;20052;-43
2022/12/15 12:32:47;;;;;;;8.25;4.40;;;6.10;99.90;;;;;;5038105;28;20098;-40
2022/12/15 12:35:34;;;;;;;11.05;4.18;;;6.40;98.80;;;;;;5032274;28;20052;-39
2022/12/15 12:38:00;;;;;;;9.15;4.53;;;6.80;98.40;;;;;;5041991;28;20045;-40
2022/12/15 12:40:54;;;;;;;10.32;4.72;;;7.00;98.10;;;;;;5049201;28;20048;-43
2022/12/15 12:43:43;;;;;;;11.63;4.72;;;6.70;96.50;;;;;;5034130;28;20045;-40
2022/12/15 12:46:18;;;;;;;8.40;4.22;;;6.40;97.30;;;;;;5048163;28;20037;-42
2022/12/15 12:48:43;;;;;;;8.23;4.38;;;6.70;97.70;;;;;;5049348;28;20124;-42
2022/12/15 12:51:22;;;;;;;10.43;4.65;;;6.50;97.50;;;;;;5049386;28;20565;-41
2022/12/15 12:53:48;;;;;;;9.60;4.55;;;6.30;98.40;;;;;;5041458;28;20044;-40
2022/12/15 12:56:42;;;;;;;10.00;4.75;;;6.60;98.90;;;;;;5044305;28;20175;-41
2022/12/15 12:59:47;;;;;;;10.50;4.70;;;7.20;97.70;;;;;;5036897;28;20073;-47
2022/12/15 13:02:24;;;;;;;12.65;4.90;;;7.70;95.40;;;;;;4997697;28;20056;-39
2022/12/15 13:05:05;;;;;;;8.80;4.65;;;7.80;94.60;;;;;;5046382;28;20033;-38
2022/12/15 13:07:39;;;;;;;7.03;4.07;;;7.80;93.80;;;;;;5046266;28;20515;-42
2022/12/15 13:10:17;;;;;;;8.63;4.38;;;7.50;95.10;;;;;;5036828;28;20191;-41
2022/12/15 13:12:48;;;;;;;7.63;4.63;;;7.20;94.60;;;;;;5046465;28;20116;-41
2022/12/15 13:15:26;;;;;;;10.25;4.90;;;7.10;95.90;;;;;;5044031;28;20036;-40
2022/12/15 13:17:57;;;;;;;9.15;4.80;;;6.70;96.20;;;;;;5047181;28;20450;-38
2022/12/15 13:20:25;;;;;;;13.00;4.57;;;6.40;96.80;;;;;;5033252;28;20162;-41
2022/12/15 13:22:51;;;;;;;9.73;4.40;;;6.30;97.30;;;;;;5048169;28;20662;-42
2022/12/15 13:25:38;;;;;;;9.75;4.28;;;6.10;97.40;;;;;;5049266;28;20087;-40
2022/12/15 13:28:33;;;;;;;9.38;3.70;;;6.20;97.60;;;;;;5046156;28;20049;-41
2022/12/15 13:31:17;;;;;;;7.20;3.72;;;6.30;97.80;;;;;;5049666;28;20041;-38
2022/12/15 13:33:51;;;;;;;8.27;4.47;;;5.80;97.00;;;;;;5048683;28;20498;-38
2022/12/15 13:36:35;;;;;;;8.65;4.15;;;5.30;99.20;;;;;;5041517;28;20067;-38
2022/12/15 13:39:21;;;;;;;9.82;4.70;;;4.90;99.80;;;;;;5048649;28;20261;-43
2022/12/15 13:41:50;;;;;;;11.63;4.95;;;4.50;99.90;;;;;;5047704;28;20072;-41
2022/12/15 13:44:45;;;;;;;10.45;4.75;;;4.30;99.90;;;;;;5041054;28;20091;-43
2022/12/15 13:47:14;;;;;;;16.20;5.15;;;;;;;;;;5024151;28;20049;-40
2022/12/15 13:49:59;;;;;;;10.32;5.13;;;3.90;99.90;;;;;;5046289;28;20046;-39
2022/12/15 13:52:33;;;;;;;12.90;5.55;;;3.80;99.90;;;;;;5042853;28;20491;-39
2022/12/15 13:55:04;;;;;;;11.98;5.05;;;3.80;99.90;;;;;;5047129;28;20076;-41
2022/12/15 13:57:33;;;;;;;15.18;5.35;;;3.60;99.90;;;;;;5047485;28;20052;-41
2022/12/15 14:00:20;;;;;;;12.02;4.97;;;3.60;99.90;;;;;;5043469;28;20127;-49
2022/12/15 14:02:47;;;;;;;10.85;5.55;;;3.50;99.90;;;;;;5047343;28;20482;-39
2022/12/15 14:05:20;;;;;;;14.98;5.15;;;3.40;99.90;;;;;;5029477;28;20038;-39
2022/12/15 14:07:58;;;;;;;11.35;4.93;;;3.30;99.90;;;;;;5022701;28;20041;-38
2022/12/15 14:10:32;;;;;;;11.02;5.10;;;3.30;99.90;;;;;;5043431;28;20081;-38
2022/12/15 14:13:04;;;;;;;8.30;4.60;;;3.30;99.90;;;;;;5043167;28;20044;-39
2022/12/15 14:15:31;;;;;;;9.73;5.03;;;3.30;99.90;;;;;;5022982;28;20041;-39
2022/12/15 14:18:00;;;;;;;10.52;5.32;;;3.20;99.90;;;;;;5035973;28;20047;-38
2022/12/15 14:20:30;;;;;;;9.93;4.70;;;3.20;99.90;;;;;;5043581;28;20537;-40
2022/12/15 14:22:57;;;;;;;11.90;6.18;;;3.10;99.90;;;;;;5046742;28;20510;-40
2022/12/15 14:25:28;;;;;;;11.27;5.20;;;3.10;99.90;;;;;;5041711;28;20064;-40
2022/12/15 14:27:54;;;;;;;10.00;5.22;;;3.00;99.90;;;;;;5031928;28;20121;-39
2022/12/15 14:30:29;;;;;;;11.65;5.60;;;2.90;99.90;;;;;;5045305;28;20060;-40
2022/12/15 14:33:15;;;;;;;10.07;5.03;;;2.90;99.90;;;;;;5042836;28;20049;-39
2022/12/15 14:35:47;;;;;;;15.35;5.25;;;2.80;99.90;;;;;;5037850;28;20037;-40
2022/12/15 14:38:49;;;;;;;11.70;5.28;;;2.80;99.90;;;;;;5038681;28;20076;-39
2022/12/15 14:41:38;;;;;;;10.70;5.50;;;2.80;99.90;;;;;;5013305;28;20131;-39
2022/12/15 14:44:24;;;;;;;12.23;5.72;;;2.70;99.90;;;;;;5041719;28;20105;-41
2022/12/15 14:46:50;;;;;;;9.43;5.15;;;2.60;99.90;;;;;;5037467;28;20036;-39
2022/12/15 14:49:36;;;;;;;10.23;5.10;;;2.60;99.90;;;;;;5055770;28;20504;-40
2022/12/15 14:52:05;;;;;;;11.60;5.78;;;2.60;99.90;;;;;;5035531;28;20489;-38
2022/12/15 14:54:37;;;;;;;13.38;6.47;;;2.60;99.90;;;;;;5038301;28;20040;-41
2022/12/15 14:57:13;;;;;;;11.93;6.50;;;2.50;99.90;;;;;;5037115;28;20505;-40
2022/12/15 14:59:42;;;;;;;13.95;6.15;;;2.40;99.90;;;;;;5039541;28;20501;-40
2022/12/15 15:02:13;;;;;;;10.65;5.32;;;2.40;99.90;;;;;;5043248;28;20094;-40
2022/12/15 15:04:40;;;;;;;12.20;5.97;;;2.30;99.90;;;;;;5048485;28;20043;-37
2022/12/15 15:07:15;;;;;;;13.05;5.82;;;2.20;99.90;;;;;;5044121;28;20041;-40
2022/12/15 15:09:43;;;;;;;12.00;6.28;;;2.20;99.90;;;;;;5047516;28;20489;-38
2022/12/15 15:12:17;;;;;;;11.73;6.30;;;2.10;99.90;;;;;;5045387;28;20036;-41
2022/12/15 15:14:47;;;;;;;14.27;5.80;;;2.10;99.90;;;;;;5039110;28;20486;-39
2022/12/15 15:17:13;;;;;;;10.43;5.30;;;2.00;99.90;;;;;;5045679;28;20037;-40
2022/12/15 15:19:47;;;;;;;13.90;6.57;;;2.00;99.90;;;;;;5046121;28;20094;-39
2022/12/15 15:22:40;;;;;;;14.18;7.40;;;1.90;99.90;;;;;;5046603;28;20281;-40
2022/12/15 15:25:24;;;;;;;;;;;1.80;99.90;;;;;;5039808;28;20041;-40
2022/12/15 15:27:50;;;;;;;15.10;7.10;;;1.70;99.90;;;;;;5035670;28;20047;-40
2022/12/15 15:30:20;;;;;;;13.73;7.25;;;1.50;99.90;;;;;;5040255;28;20128;-39
2022/12/15 15:33:06;;;;;;;13.30;7.65;;;1.40;99.90;;;;;;5031955;28;20048;-39